sensor_id;sensor_type;location;lat;lon;timestamp;pressure;altitude;pressure_sealevel;temperature;humidity
27613;BME280;15036;48.094;-1.690;2023-05-20T00:02:01;101727.38;;;17.25;45.34
27613;BME280;15036;48.094;-1.690;2023-05-20T00:04:26;101719.25;;;17.37;45.02
27613;BME280;15036;48.094;-1.690;2023-05-20T00:06:51;101719.56;;;17.09;45.94
27613;BME280;15036;48.094;-1.690;2023-05-20T00:09:17;101713.59;;;17.18;45.68
27613;BME280;15036;48.094;-1.690;2023-05-20T00:11:42;101714.84;;;17.22;45.76
27613;BME280;15036;48.094;-1.690;2023-05-20T00:14:08;101707.38;;;17.29;45.79
27613;BME280;15036;48.094;-1.690;2023-05-20T00:16:33;101721.50;;;17.08;46.25
27613;BME280;15036;48.094;-1.690;2023-05-20T00:18:59;101713.53;;;16.74;46.98
27613;BME280;15036;48.094;-1.690;2023-05-20T00:21:24;101706.59;;;17.09;46.40
27613;BME280;15036;48.094;-1.690;2023-05-20T00:23:50;101698.00;;;16.86;47.13
27613;BME280;15036;48.094;-1.690;2023-05-20T00:26:15;101700.56;;;16.81;47.56
27613;BME280;15036;48.094;-1.690;2023-05-20T00:28:41;101707.13;;;16.87;47.62
27613;BME280;15036;48.094;-1.690;2023-05-20T00:31:06;101711.44;;;16.63;47.96
27613;BME280;15036;48.094;-1.690;2023-05-20T00:33:32;101706.78;;;16.64;47.78
27613;BME280;15036;48.094;-1.690;2023-05-20T00:35:57;101702.13;;;16.31;48.53
27613;BME280;15036;48.094;-1.690;2023-05-20T00:38:22;101708.06;;;16.61;48.00
27613;BME280;15036;48.094;-1.690;2023-05-20T00:40:48;101711.66;;;16.35;48.50
27613;BME280;15036;48.094;-1.690;2023-05-20T00:43:13;101701.28;;;16.37;48.39
27613;BME280;15036;48.094;-1.690;2023-05-20T00:45:38;101701.25;;;16.44;48.49
27613;BME280;15036;48.094;-1.690;2023-05-20T00:48:05;101710.59;;;16.23;49.24
27613;BME280;15036;48.094;-1.690;2023-05-20T00:50:30;101702.97;;;16.19;49.15
27613;BME280;15036;48.094;-1.690;2023-05-20T00:52:56;101701.28;;;16.31;48.82
27613;BME280;15036;48.094;-1.690;2023-05-20T00:55:23;101702.31;;;15.78;50.34
27613;BME280;15036;48.094;-1.690;2023-05-20T00:57:49;101698.09;;;16.01;49.91
27613;BME280;15036;48.094;-1.690;2023-05-20T01:00:15;101687.31;;;16.19;49.23
27613;BME280;15036;48.094;-1.690;2023-05-20T01:02:40;101678.63;;;16.09;49.68
27613;BME280;15036;48.094;-1.690;2023-05-20T01:05:06;101685.81;;;16.17;49.40
27613;BME280;15036;48.094;-1.690;2023-05-20T01:07:32;101685.59;;;16.51;48.72
27613;BME280;15036;48.094;-1.690;2023-05-20T01:09:58;101675.66;;;16.24;49.17
27613;BME280;15036;48.094;-1.690;2023-05-20T01:12:30;101672.44;;;16.60;48.38
27613;BME280;15036;48.094;-1.690;2023-05-20T01:17:30;101672.63;;;16.45;48.97
27613;BME280;15036;48.094;-1.690;2023-05-20T01:19:58;101658.84;;;16.45;48.92
27613;BME280;15036;48.094;-1.690;2023-05-20T01:22:25;101663.53;;;16.58;48.59
27613;BME280;15036;48.094;-1.690;2023-05-20T01:24:51;101657.19;;;15.79;50.18
27613;BME280;15036;48.094;-1.690;2023-05-20T01:27:20;101661.00;;;16.30;49.25
27613;BME280;15036;48.094;-1.690;2023-05-20T01:29:47;101654.84;;;16.41;48.97
27613;BME280;15036;48.094;-1.690;2023-05-20T01:32:22;101656.09;;;16.45;48.99
27613;BME280;15036;48.094;-1.690;2023-05-20T01:34:49;101650.41;;;16.33;49.24
27613;BME280;15036;48.094;-1.690;2023-05-20T01:37:17;101651.63;;;16.44;49.19
27613;BME280;15036;48.094;-1.690;2023-05-20T01:39:44;101653.19;;;15.88;50.48
27613;BME280;15036;48.094;-1.690;2023-05-20T01:42:11;101648.47;;;16.40;49.28
27613;BME280;15036;48.094;-1.690;2023-05-20T01:44:38;101648.75;;;16.00;50.03
27613;BME280;15036;48.094;-1.690;2023-05-20T01:47:03;101656.06;;;16.65;49.07
27613;BME280;15036;48.094;-1.690;2023-05-20T01:49:29;101640.59;;;16.44;49.27
27613;BME280;15036;48.094;-1.690;2023-05-20T01:51:55;101638.94;;;16.36;49.41
27613;BME280;15036;48.094;-1.690;2023-05-20T01:54:20;101635.63;;;16.08;50.15
27613;BME280;15036;48.094;-1.690;2023-05-20T01:56:46;101641.41;;;16.71;48.94
27613;BME280;15036;48.094;-1.690;2023-05-20T01:59:11;101645.06;;;16.58;48.91
27613;BME280;15036;48.094;-1.690;2023-05-20T02:01:37;101638.81;;;16.82;48.23
27613;BME280;15036;48.094;-1.690;2023-05-20T02:04:03;101644.03;;;16.39;49.37
27613;BME280;15036;48.094;-1.690;2023-05-20T02:06:28;101643.16;;;16.45;49.19
27613;BME280;15036;48.094;-1.690;2023-05-20T02:08:53;101633.38;;;16.69;48.82
27613;BME280;15036;48.094;-1.690;2023-05-20T02:11:19;101643.06;;;16.85;48.20
27613;BME280;15036;48.094;-1.690;2023-05-20T02:13:45;101643.22;;;16.96;48.04
27613;BME280;15036;48.094;-1.690;2023-05-20T02:16:10;101644.00;;;16.59;48.74
27613;BME280;15036;48.094;-1.690;2023-05-20T02:18:36;101643.16;;;16.52;49.16
27613;BME280;15036;48.094;-1.690;2023-05-20T02:21:04;101645.84;;;16.78;48.70
27613;BME280;15036;48.094;-1.690;2023-05-20T02:23:30;101652.75;;;16.17;49.97
27613;BME280;15036;48.094;-1.690;2023-05-20T02:25:55;101652.97;;;16.15;50.55
27613;BME280;15036;48.094;-1.690;2023-05-20T02:28:21;101648.66;;;16.65;49.31
27613;BME280;15036;48.094;-1.690;2023-05-20T02:30:46;101653.78;;;16.55;49.36
27613;BME280;15036;48.094;-1.690;2023-05-20T02:33:12;101644.69;;;16.15;50.41
27613;BME280;15036;48.094;-1.690;2023-05-20T02:35:38;101638.94;;;16.50;49.57
27613;BME280;15036;48.094;-1.690;2023-05-20T02:38:04;101642.38;;;15.93;50.63
27613;BME280;15036;48.094;-1.690;2023-05-20T02:40:29;101643.44;;;16.11;50.39
27613;BME280;15036;48.094;-1.690;2023-05-20T02:42:55;101633.06;;;16.00;50.90
27613;BME280;15036;48.094;-1.690;2023-05-20T02:45:20;101634.53;;;15.83;51.25
27613;BME280;15036;48.094;-1.690;2023-05-20T02:47:45;101630.28;;;16.13;50.85
27613;BME280;15036;48.094;-1.690;2023-05-20T02:50:11;101628.19;;;15.96;50.96
27613;BME280;15036;48.094;-1.690;2023-05-20T02:52:36;101632.63;;;15.51;52.34
27613;BME280;15036;48.094;-1.690;2023-05-20T02:55:01;101618.41;;;15.41;52.39
27613;BME280;15036;48.094;-1.690;2023-05-20T02:57:27;101626.09;;;15.58;52.08
27613;BME280;15036;48.094;-1.690;2023-05-20T02:59:53;101622.06;;;15.74;51.77
27613;BME280;15036;48.094;-1.690;2023-05-20T03:02:19;101625.03;;;15.86;51.35
27613;BME280;15036;48.094;-1.690;2023-05-20T03:04:44;101631.16;;;16.14;50.72
27613;BME280;15036;48.094;-1.690;2023-05-20T03:07:11;101626.28;;;15.83;51.44
27613;BME280;15036;48.094;-1.690;2023-05-20T03:09:36;101621.75;;;15.30;52.68
27613;BME280;15036;48.094;-1.690;2023-05-20T03:12:02;101613.72;;;15.28;52.99
27613;BME280;15036;48.094;-1.690;2023-05-20T03:14:27;101619.75;;;15.65;51.92
27613;BME280;15036;48.094;-1.690;2023-05-20T03:16:53;101603.44;;;15.76;51.87
27613;BME280;15036;48.094;-1.690;2023-05-20T03:19:21;101611.44;;;16.04;51.16
27613;BME280;15036;48.094;-1.690;2023-05-20T03:21:46;101600.88;;;15.94;51.49
27613;BME280;15036;48.094;-1.690;2023-05-20T03:24:12;101603.00;;;15.59;52.62
27613;BME280;15036;48.094;-1.690;2023-05-20T03:26:37;101607.66;;;15.66;52.45
27613;BME280;15036;48.094;-1.690;2023-05-20T03:29:07;101601.31;;;15.52;53.02
27613;BME280;15036;48.094;-1.690;2023-05-20T03:31:33;101587.75;;;15.70;52.15
27613;BME280;15036;48.094;-1.690;2023-05-20T03:33:58;101590.06;;;15.80;52.22
27613;BME280;15036;48.094;-1.690;2023-05-20T03:36:24;101592.00;;;15.66;52.67
27613;BME280;15036;48.094;-1.690;2023-05-20T03:38:49;101595.38;;;15.88;52.07
27613;BME280;15036;48.094;-1.690;2023-05-20T03:41:14;101587.34;;;15.67;52.48
27613;BME280;15036;48.094;-1.690;2023-05-20T03:43:40;101589.44;;;15.71;52.50
27613;BME280;15036;48.094;-1.690;2023-05-20T03:46:05;101580.13;;;15.66;52.58
27613;BME280;15036;48.094;-1.690;2023-05-20T03:48:31;101585.22;;;15.55;52.93
27613;BME280;15036;48.094;-1.690;2023-05-20T03:50:56;101570.88;;;14.80;54.83
27613;BME280;15036;48.094;-1.690;2023-05-20T03:53:21;101574.81;;;15.51;53.40
27613;BME280;15036;48.094;-1.690;2023-05-20T03:55:47;101577.06;;;15.08;54.43
27613;BME280;15036;48.094;-1.690;2023-05-20T03:58:13;101579.00;;;15.21;54.04
27613;BME280;15036;48.094;-1.690;2023-05-20T04:00:39;101585.22;;;15.55;53.27
27613;BME280;15036;48.094;-1.690;2023-05-20T04:03:05;101583.59;;;14.94;54.84
27613;BME280;15036;48.094;-1.690;2023-05-20T04:05:30;101583.06;;;15.51;53.65
27613;BME280;15036;48.094;-1.690;2023-05-20T04:07:56;101586.69;;;15.51;53.41
27613;BME280;15036;48.094;-1.690;2023-05-20T04:10:22;101587.06;;;15.29;54.18
27613;BME280;15036;48.094;-1.690;2023-05-20T04:12:48;101580.75;;;15.74;53.12
27613;BME280;15036;48.094;-1.690;2023-05-20T04:15:14;101584.78;;;15.58;53.58
27613;BME280;15036;48.094;-1.690;2023-05-20T04:17:40;101591.56;;;15.56;53.65
27613;BME280;15036;48.094;-1.690;2023-05-20T04:20:06;101576.69;;;15.37;54.36
27613;BME280;15036;48.094;-1.690;2023-05-20T04:22:32;101573.13;;;15.70;53.55
27613;BME280;15036;48.094;-1.690;2023-05-20T04:24:58;101577.59;;;15.64;53.92
27613;BME280;15036;48.094;-1.690;2023-05-20T04:27:24;101575.69;;;15.58;54.00
27613;BME280;15036;48.094;-1.690;2023-05-20T04:29:50;101577.53;;;15.31;54.57
27613;BME280;15036;48.094;-1.690;2023-05-20T04:32:17;101576.06;;;15.35;54.52
27613;BME280;15036;48.094;-1.690;2023-05-20T04:34:44;101570.56;;;15.29;54.24
27613;BME280;15036;48.094;-1.690;2023-05-20T04:37:11;101574.63;;;15.72;53.72
27613;BME280;15036;48.094;-1.690;2023-05-20T04:39:37;101566.59;;;15.71;53.93
27613;BME280;15036;48.094;-1.690;2023-05-20T04:42:03;101574.63;;;15.66;53.98
27613;BME280;15036;48.094;-1.690;2023-05-20T04:44:29;101569.50;;;15.36;54.72
27613;BME280;15036;48.094;-1.690;2023-05-20T04:46:55;101571.59;;;15.21;55.22
27613;BME280;15036;48.094;-1.690;2023-05-20T04:49:24;101571.66;;;15.54;54.45
27613;BME280;15036;48.094;-1.690;2023-05-20T04:51:55;101575.44;;;15.79;53.90
27613;BME280;15036;48.094;-1.690;2023-05-20T04:54:21;101561.50;;;15.74;53.62
27613;BME280;15036;48.094;-1.690;2023-05-20T04:56:46;101571.63;;;15.93;53.28
27613;BME280;15036;48.094;-1.690;2023-05-20T04:59:12;101565.09;;;15.42;54.66
27613;BME280;15036;48.094;-1.690;2023-05-20T05:01:37;101564.88;;;15.76;53.92
27613;BME280;15036;48.094;-1.690;2023-05-20T05:04:03;101561.06;;;15.77;53.72
27613;BME280;15036;48.094;-1.690;2023-05-20T05:06:28;101560.44;;;15.55;54.55
27613;BME280;15036;48.094;-1.690;2023-05-20T05:08:54;101565.72;;;15.90;53.48
27613;BME280;15036;48.094;-1.690;2023-05-20T05:11:21;101562.34;;;15.61;54.50
27613;BME280;15036;48.094;-1.690;2023-05-20T05:13:47;101567.84;;;15.48;54.90
27613;BME280;15036;48.094;-1.690;2023-05-20T05:16:12;101567.81;;;15.81;54.15
27613;BME280;15036;48.094;-1.690;2023-05-20T05:18:37;101560.44;;;15.69;54.41
27613;BME280;15036;48.094;-1.690;2023-05-20T05:21:05;101563.38;;;15.87;54.12
27613;BME280;15036;48.094;-1.690;2023-05-20T05:23:31;101551.75;;;15.78;54.14
27613;BME280;15036;48.094;-1.690;2023-05-20T05:25:57;101563.59;;;15.92;54.10
27613;BME280;15036;48.094;-1.690;2023-05-20T05:28:23;101568.28;;;15.78;54.35
27613;BME280;15036;48.094;-1.690;2023-05-20T05:30:49;101561.91;;;15.78;54.39
27613;BME280;15036;48.094;-1.690;2023-05-20T05:33:15;101565.72;;;15.63;54.82
27613;BME280;15036;48.094;-1.690;2023-05-20T05:35:41;101566.50;;;16.16;53.48
27613;BME280;15036;48.094;-1.690;2023-05-20T05:38:07;101555.88;;;16.26;53.29
27613;BME280;15036;48.094;-1.690;2023-05-20T05:40:33;101560.75;;;16.24;53.05
27613;BME280;15036;48.094;-1.690;2023-05-20T05:42:58;101568.38;;;16.29;53.17
27613;BME280;15036;48.094;-1.690;2023-05-20T05:45:24;101564.63;;;16.04;53.79
27613;BME280;15036;48.094;-1.690;2023-05-20T05:47:49;101561.94;;;15.58;54.82
27613;BME280;15036;48.094;-1.690;2023-05-20T05:50:14;101557.63;;;16.08;53.77
27613;BME280;15036;48.094;-1.690;2023-05-20T05:52:40;101563.56;;;16.05;54.03
27613;BME280;15036;48.094;-1.690;2023-05-20T05:55:06;101555.28;;;16.05;53.78
27613;BME280;15036;48.094;-1.690;2023-05-20T05:57:32;101562.44;;;16.25;53.35
27613;BME280;15036;48.094;-1.690;2023-05-20T05:59:57;101546.06;;;16.50;52.85
27613;BME280;15036;48.094;-1.690;2023-05-20T06:02:23;101559.78;;;16.70;52.83
27613;BME280;15036;48.094;-1.690;2023-05-20T06:04:48;101561.31;;;16.53;52.87
27613;BME280;15036;48.094;-1.690;2023-05-20T06:07:14;101556.59;;;16.66;52.82
27613;BME280;15036;48.094;-1.690;2023-05-20T06:09:39;101557.31;;;16.93;52.18
27613;BME280;15036;48.094;-1.690;2023-05-20T06:12:05;101553.06;;;16.53;52.92
27613;BME280;15036;48.094;-1.690;2023-05-20T06:14:30;101558.38;;;16.41;53.49
27613;BME280;15036;48.094;-1.690;2023-05-20T06:16:56;101556.84;;;16.58;53.20
27613;BME280;15036;48.094;-1.690;2023-05-20T06:19:22;101556.84;;;15.68;55.50
27613;BME280;15036;48.094;-1.690;2023-05-20T06:21:47;101553.97;;;16.27;54.11
27613;BME280;15036;48.094;-1.690;2023-05-20T06:24:13;101548.16;;;16.48;54.09
27613;BME280;15036;48.094;-1.690;2023-05-20T06:26:38;101551.19;;;16.33;54.49
27613;BME280;15036;48.094;-1.690;2023-05-20T06:29:03;101553.25;;;16.58;54.13
27613;BME280;15036;48.094;-1.690;2023-05-20T06:31:30;101544.16;;;16.95;52.87
27613;BME280;15036;48.094;-1.690;2023-05-20T06:33:55;101551.44;;;16.76;53.62
27613;BME280;15036;48.094;-1.690;2023-05-20T06:36:20;101547.66;;;16.71;53.68
27613;BME280;15036;48.094;-1.690;2023-05-20T06:38:46;101549.13;;;16.16;54.74
27613;BME280;15036;48.094;-1.690;2023-05-20T06:41:11;101540.19;;;16.78;53.53
27613;BME280;15036;48.094;-1.690;2023-05-20T06:43:37;101540.19;;;16.78;53.47
27613;BME280;15036;48.094;-1.690;2023-05-20T06:46:02;101545.28;;;17.12;52.86
27613;BME280;15036;48.094;-1.690;2023-05-20T06:48:28;101546.38;;;17.11;52.79
27613;BME280;15036;48.094;-1.690;2023-05-20T06:50:53;101544.69;;;16.72;54.24
27613;BME280;15036;48.094;-1.690;2023-05-20T06:53:18;101539.28;;;16.53;54.59
27613;BME280;15036;48.094;-1.690;2023-05-20T06:55:44;101543.13;;;16.89;53.94
27613;BME280;15036;48.094;-1.690;2023-05-20T06:58:09;101548.19;;;16.92;53.72
27613;BME280;15036;48.094;-1.690;2023-05-20T07:00:34;101536.91;;;16.94;53.80
27613;BME280;15036;48.094;-1.690;2023-05-20T07:03:01;101545.56;;;16.66;54.56
27613;BME280;15036;48.094;-1.690;2023-05-20T07:05:26;101545.09;;;16.76;54.43
27613;BME280;15036;48.094;-1.690;2023-05-20T07:07:53;101536.66;;;17.33;52.94
27613;BME280;15036;48.094;-1.690;2023-05-20T07:10:18;101537.78;;;17.57;52.31
27613;BME280;15036;48.094;-1.690;2023-05-20T07:12:44;101535.97;;;17.38;52.94
27613;BME280;15036;48.094;-1.690;2023-05-20T07:15:09;101539.84;;;16.68;54.51
27613;BME280;15036;48.094;-1.690;2023-05-20T07:17:35;101528.44;;;17.26;53.39
27613;BME280;15036;48.094;-1.690;2023-05-20T07:20:01;101524.00;;;17.50;52.64
27613;BME280;15036;48.094;-1.690;2023-05-20T07:22:28;101527.50;;;17.08;53.87
27613;BME280;15036;48.094;-1.690;2023-05-20T07:24:53;101535.47;;;17.47;53.26
27613;BME280;15036;48.094;-1.690;2023-05-20T07:27:19;101522.97;;;17.94;51.96
27613;BME280;15036;48.094;-1.690;2023-05-20T07:29:44;101531.97;;;17.83;51.84
27613;BME280;15036;48.094;-1.690;2023-05-20T07:32:10;101524.25;;;17.91;51.81
27613;BME280;15036;48.094;-1.690;2023-05-20T07:34:36;101526.94;;;17.80;52.38
27613;BME280;15036;48.094;-1.690;2023-05-20T07:37:01;101527.38;;;17.77;52.62
27613;BME280;15036;48.094;-1.690;2023-05-20T07:39:27;101525.50;;;17.53;52.92
27613;BME280;15036;48.094;-1.690;2023-05-20T07:41:52;101535.16;;;17.62;53.12
27613;BME280;15036;48.094;-1.690;2023-05-20T07:44:17;101517.63;;;17.74;52.84
27613;BME280;15036;48.094;-1.690;2023-05-20T07:46:45;101518.34;;;17.88;52.96
27613;BME280;15036;48.094;-1.690;2023-05-20T07:49:10;101507.69;;;18.28;51.93
27613;BME280;15036;48.094;-1.690;2023-05-20T07:51:36;101503.09;;;18.22;52.34
27613;BME280;15036;48.094;-1.690;2023-05-20T07:54:02;101507.00;;;18.32;52.15
27613;BME280;15036;48.094;-1.690;2023-05-20T07:56:27;101511.72;;;18.79;50.94
27613;BME280;15036;48.094;-1.690;2023-05-20T07:58:55;101502.25;;;18.87;50.41
27613;BME280;15036;48.094;-1.690;2023-05-20T08:01:20;101500.00;;;18.95;49.69
27613;BME280;15036;48.094;-1.690;2023-05-20T08:03:46;101498.66;;;18.68;50.41
27613;BME280;15036;48.094;-1.690;2023-05-20T08:06:12;101493.34;;;19.38;48.59
27613;BME280;15036;48.094;-1.690;2023-05-20T08:08:37;101487.97;;;19.77;47.29
27613;BME280;15036;48.094;-1.690;2023-05-20T08:11:04;101487.09;;;20.23;46.95
27613;BME280;15036;48.094;-1.690;2023-05-20T08:13:30;101489.75;;;19.95;47.90
27613;BME280;15036;48.094;-1.690;2023-05-20T08:15:55;101489.16;;;19.70;48.70
27613;BME280;15036;48.094;-1.690;2023-05-20T08:18:21;101493.63;;;19.82;47.97
27613;BME280;15036;48.094;-1.690;2023-05-20T08:20:47;101489.53;;;19.62;48.48
27613;BME280;15036;48.094;-1.690;2023-05-20T08:23:12;101484.94;;;19.44;48.28
27613;BME280;15036;48.094;-1.690;2023-05-20T08:25:38;101487.72;;;19.79;47.78
27613;BME280;15036;48.094;-1.690;2023-05-20T08:28:04;101483.31;;;18.54;49.90
27613;BME280;15036;48.094;-1.690;2023-05-20T08:30:31;101493.25;;;18.91;49.63
27613;BME280;15036;48.094;-1.690;2023-05-20T08:32:57;101497.31;;;18.89;49.43
27613;BME280;15036;48.094;-1.690;2023-05-20T08:35:22;101488.69;;;18.97;49.38
27613;BME280;15036;48.094;-1.690;2023-05-20T08:37:48;101500.91;;;19.19;49.29
27613;BME280;15036;48.094;-1.690;2023-05-20T08:40:14;101487.09;;;18.89;49.96
27613;BME280;15036;48.094;-1.690;2023-05-20T08:42:43;101492.25;;;19.27;49.29
27613;BME280;15036;48.094;-1.690;2023-05-20T08:45:16;101483.38;;;19.48;48.73
27613;BME280;15036;48.094;-1.690;2023-05-20T08:47:41;101487.25;;;20.45;47.06
27613;BME280;15036;48.094;-1.690;2023-05-20T08:50:09;101492.03;;;20.21;47.17
27613;BME280;15036;48.094;-1.690;2023-05-20T08:52:36;101483.63;;;19.81;47.53
27613;BME280;15036;48.094;-1.690;2023-05-20T08:55:03;101485.16;;;20.12;47.36
27613;BME280;15036;48.094;-1.690;2023-05-20T08:57:32;101484.16;;;20.41;46.93
27613;BME280;15036;48.094;-1.690;2023-05-20T08:59:58;101490.19;;;20.95;45.80
27613;BME280;15036;48.094;-1.690;2023-05-20T09:02:24;101487.97;;;21.41;45.17
27613;BME280;15036;48.094;-1.690;2023-05-20T09:04:49;101484.69;;;21.28;45.54
27613;BME280;15036;48.094;-1.690;2023-05-20T09:07:26;101487.94;;;20.92;45.54
27613;BME280;15036;48.094;-1.690;2023-05-20T09:09:51;101479.81;;;20.73;46.46
27613;BME280;15036;48.094;-1.690;2023-05-20T09:12:19;101478.16;;;20.89;46.64
27613;BME280;15036;48.094;-1.690;2023-05-20T09:14:45;101477.13;;;21.40;45.23
27613;BME280;15036;48.094;-1.690;2023-05-20T09:17:11;101471.75;;;20.60;46.14
27613;BME280;15036;48.094;-1.690;2023-05-20T09:19:37;101461.88;;;21.59;44.58
27613;BME280;15036;48.094;-1.690;2023-05-20T09:22:02;101467.41;;;20.25;47.71
27613;BME280;15036;48.094;-1.690;2023-05-20T09:24:29;101463.88;;;20.97;46.22
27613;BME280;15036;48.094;-1.690;2023-05-20T09:26:54;101459.69;;;21.28;nan
27613;BME280;15036;48.094;-1.690;2023-05-20T09:29:20;101458.53;;;20.96;45.47
27613;BME280;15036;48.094;-1.690;2023-05-20T09:31:46;101449.50;;;21.50;44.45
27613;BME280;15036;48.094;-1.690;2023-05-20T09:34:12;101450.19;;;21.24;44.39
27613;BME280;15036;48.094;-1.690;2023-05-20T09:36:38;101447.75;;;21.61;43.79
27613;BME280;15036;48.094;-1.690;2023-05-20T09:39:05;101442.47;;;22.19;41.96
27613;BME280;15036;48.094;-1.690;2023-05-20T09:41:35;101434.59;;;21.73;43.61
27613;BME280;15036;48.094;-1.690;2023-05-20T09:44:02;101439.56;;;21.54;44.45
27613;BME280;15036;48.094;-1.690;2023-05-20T09:46:28;101455.16;;;21.22;43.48
27613;BME280;15036;48.094;-1.690;2023-05-20T09:48:55;101443.78;;;21.56;42.42
27613;BME280;15036;48.094;-1.690;2023-05-20T09:51:22;101430.16;;;22.15;41.86
27613;BME280;15036;48.094;-1.690;2023-05-20T09:53:49;101445.94;;;22.31;42.11
27613;BME280;15036;48.094;-1.690;2023-05-20T09:56:17;101442.00;;;22.05;40.79
27613;BME280;15036;48.094;-1.690;2023-05-20T09:58:46;101437.81;;;22.46;40.31
27613;BME280;15036;48.094;-1.690;2023-05-20T10:01:13;101428.69;;;22.07;41.91
27613;BME280;15036;48.094;-1.690;2023-05-20T10:03:38;101441.97;;;22.49;41.45
27613;BME280;15036;48.094;-1.690;2023-05-20T10:09:28;101429.03;;;22.86;40.65
27613;BME280;15036;48.094;-1.690;2023-05-20T10:20:26;101420.53;;;22.44;40.65
27613;BME280;15036;48.094;-1.690;2023-05-20T10:22:55;101422.28;;;23.35;39.30
27613;BME280;15036;48.094;-1.690;2023-05-20T10:25:28;101407.84;;;23.90;38.82
27613;BME280;15036;48.094;-1.690;2023-05-20T10:28:35;101414.28;;;23.90;38.04
27613;BME280;15036;48.094;-1.690;2023-05-20T10:31:01;101420.72;;;23.49;38.73
27613;BME280;15036;48.094;-1.690;2023-05-20T10:33:28;101407.84;;;23.90;36.96
27613;BME280;15036;48.094;-1.690;2023-05-20T10:35:58;101411.31;;;24.07;37.39
27613;BME280;15036;48.094;-1.690;2023-05-20T10:38:24;101419.75;;;23.70;37.75
27613;BME280;15036;48.094;-1.690;2023-05-20T10:40:49;101404.91;;;24.12;37.02
27613;BME280;15036;48.094;-1.690;2023-05-20T10:43:25;101408.88;;;23.74;37.06
27613;BME280;15036;48.094;-1.690;2023-05-20T10:45:55;101405.78;;;23.70;37.28
27613;BME280;15036;48.094;-1.690;2023-05-20T10:48:28;101398.78;;;23.63;37.67
27613;BME280;15036;48.094;-1.690;2023-05-20T10:50:58;101396.25;;;23.61;37.70
27613;BME280;15036;48.094;-1.690;2023-05-20T10:53:25;101397.84;;;23.47;37.15
27613;BME280;15036;48.094;-1.690;2023-05-20T10:55:52;101396.41;;;23.86;36.95
27613;BME280;15036;48.094;-1.690;2023-05-20T10:58:21;101398.47;;;23.59;37.50
27613;BME280;15036;48.094;-1.690;2023-05-20T11:00:47;101391.06;;;23.75;38.04
27613;BME280;15036;48.094;-1.690;2023-05-20T11:03:14;101403.25;;;24.21;37.38
27613;BME280;15036;48.094;-1.690;2023-05-20T11:05:40;101394.06;;;24.20;37.33
27613;BME280;15036;48.094;-1.690;2023-05-20T11:08:07;101393.00;;;23.74;36.89
27613;BME280;15036;48.094;-1.690;2023-05-20T11:10:33;101392.34;;;24.09;36.50
27613;BME280;15036;48.094;-1.690;2023-05-20T11:13:00;101389.44;;;24.61;35.88
27613;BME280;15036;48.094;-1.690;2023-05-20T11:15:26;101387.81;;;24.75;36.07
27613;BME280;15036;48.094;-1.690;2023-05-20T11:17:56;101394.53;;;25.09;35.26
27613;BME280;15036;48.094;-1.690;2023-05-20T11:20:22;101389.50;;;25.11;34.99
27613;BME280;15036;48.094;-1.690;2023-05-20T11:22:54;101373.00;;;25.20;34.55
27613;BME280;15036;48.094;-1.690;2023-05-20T11:25:21;101389.44;;;24.71;35.51
27613;BME280;15036;48.094;-1.690;2023-05-20T11:27:50;101382.97;;;24.45;35.74
27613;BME280;15036;48.094;-1.690;2023-05-20T11:30:16;101377.69;;;24.54;35.41
27613;BME280;15036;48.094;-1.690;2023-05-20T11:33:02;101379.44;;;25.15;34.96
27613;BME280;15036;48.094;-1.690;2023-05-20T11:35:29;101377.78;;;25.19;34.67
27613;BME280;15036;48.094;-1.690;2023-05-20T11:40:24;101362.66;;;25.45;34.23
27613;BME280;15036;48.094;-1.690;2023-05-20T11:42:54;101373.56;;;25.37;33.79
27613;BME280;15036;48.094;-1.690;2023-05-20T11:45:21;101350.63;;;25.20;34.26
27613;BME280;15036;48.094;-1.690;2023-05-20T11:47:46;101357.38;;;25.04;34.55
27613;BME280;15036;48.094;-1.690;2023-05-20T11:50:22;101352.03;;;25.32;34.30
27613;BME280;15036;48.094;-1.690;2023-05-20T11:52:55;101351.97;;;25.72;33.89
27613;BME280;15036;48.094;-1.690;2023-05-20T11:55:21;101342.53;;;25.33;33.83
27613;BME280;15036;48.094;-1.690;2023-05-20T11:57:47;101349.56;;;25.06;34.25
27613;BME280;15036;48.094;-1.690;2023-05-20T12:00:12;101328.03;;;24.96;34.67
27613;BME280;15036;48.094;-1.690;2023-05-20T12:02:37;101341.44;;;24.99;34.42
27613;BME280;15036;48.094;-1.690;2023-05-20T12:05:03;101333.03;;;25.44;34.20
27613;BME280;15036;48.094;-1.690;2023-05-20T12:07:28;101338.84;;;25.63;32.91
27613;BME280;15036;48.094;-1.690;2023-05-20T12:09:54;101324.38;;;25.16;33.62
27613;BME280;15036;48.094;-1.690;2023-05-20T12:12:19;101335.91;;;25.93;33.47
27613;BME280;15036;48.094;-1.690;2023-05-20T12:14:44;101334.72;;;24.80;34.86
27613;BME280;15036;48.094;-1.690;2023-05-20T12:17:10;101343.13;;;25.00;33.96
27613;BME280;15036;48.094;-1.690;2023-05-20T12:19:35;101334.69;;;25.45;33.05
27613;BME280;15036;48.094;-1.690;2023-05-20T12:22:01;101327.47;;;24.79;34.20
27613;BME280;15036;48.094;-1.690;2023-05-20T12:24:26;101323.78;;;25.39;32.58
27613;BME280;15036;48.094;-1.690;2023-05-20T12:26:52;101318.19;;;25.49;33.17
27613;BME280;15036;48.094;-1.690;2023-05-20T12:29:17;101327.72;;;25.18;32.99
27613;BME280;15036;48.094;-1.690;2023-05-20T12:31:42;101327.69;;;26.22;31.52
27613;BME280;15036;48.094;-1.690;2023-05-20T12:34:08;101323.50;;;26.19;31.72
27613;BME280;15036;48.094;-1.690;2023-05-20T12:36:33;101323.94;;;26.80;30.19
27613;BME280;15036;48.094;-1.690;2023-05-20T12:38:58;101325.69;;;27.05;30.38
27613;BME280;15036;48.094;-1.690;2023-05-20T12:41:24;101320.56;;;26.83;30.42
27613;BME280;15036;48.094;-1.690;2023-05-20T12:43:49;101319.63;;;27.97;28.41
27613;BME280;15036;48.094;-1.690;2023-05-20T12:46:14;101320.13;;;28.42;28.51
27613;BME280;15036;48.094;-1.690;2023-05-20T12:48:40;101327.16;;;27.55;29.45
27613;BME280;15036;48.094;-1.690;2023-05-20T12:51:05;101320.97;;;27.00;30.37
27613;BME280;15036;48.094;-1.690;2023-05-20T12:53:31;101314.69;;;27.66;29.66